Terminal Aerodrome Forecast
Issued by NWS

Home | Current Version | Previous Version | Graphics & Text | Print | Product List | Glossary On
Versions: 1 2 3 4 5 6 7 8 9 10 11 12 13 14 15 16 17 18 19
000
FTUS43 KGRB 251100
TAFCWA
TAF
KCWA 251123Z 2512/2612 19005KT 6SM -SHRA SCT050 BKN100
      WS010/23030KT
      TEMPO 2512/2514 5SM -TSRA BKN050CB
     FM251400 19010G15KT P6SM VCSH SCT035 BKN070
      TEMPO 2514/2518 5SM -TSRA BKN035CB
     FM260000 19005KT 5SM BR VCSH SCT020 BKN035
     FM260600 22004KT 3SM BR SCT010 OVC018
     FM260900 27003KT 2SM BR OVC009=

USA.gov is the U.S. government's official web portal to all federal, state and local government web resources and services.